sensor_id;sensor_type;location;lat;lon;timestamp;P1;durP1;ratioP1;P2;durP2;ratioP2
43962;SDS011;29622;45.534;9.242;2022-11-30T00:03:07;58.97;;;27.50;;
43962;SDS011;29622;45.534;9.242;2022-11-30T00:08:09;57.30;;;29.00;;
43962;SDS011;29622;45.534;9.242;2022-11-30T00:13:11;55.10;;;28.42;;
43962;SDS011;29622;45.534;9.242;2022-11-30T00:18:12;53.42;;;28.05;;
43962;SDS011;29622;45.534;9.242;2022-11-30T00:23:15;60.47;;;28.27;;
43962;SDS011;29622;45.534;9.242;2022-11-30T00:28:17;55.85;;;28.95;;
43962;SDS011;29622;45.534;9.242;2022-11-30T00:33:18;56.03;;;27.48;;
43962;SDS011;29622;45.534;9.242;2022-11-30T00:38:55;58.65;;;27.77;;
43962;SDS011;29622;45.534;9.242;2022-11-30T00:44:07;57.28;;;28.00;;
43962;SDS011;29622;45.534;9.242;2022-11-30T00:49:24;67.05;;;31.23;;
43962;SDS011;29622;45.534;9.242;2022-11-30T00:55:12;58.85;;;29.92;;
43962;SDS011;29622;45.534;9.242;2022-11-30T01:00:13;59.78;;;28.65;;
43962;SDS011;29622;45.534;9.242;2022-11-30T01:05:17;59.35;;;28.27;;
43962;SDS011;29622;45.534;9.242;2022-11-30T01:10:24;54.95;;;28.52;;
43962;SDS011;29622;45.534;9.242;2022-11-30T01:15:28;58.17;;;28.60;;
43962;SDS011;29622;45.534;9.242;2022-11-30T01:20:43;60.53;;;29.43;;
43962;SDS011;29622;45.534;9.242;2022-11-30T01:25:53;63.70;;;29.83;;
43962;SDS011;29622;45.534;9.242;2022-11-30T01:31:05;64.40;;;28.27;;
43962;SDS011;29622;45.534;9.242;2022-11-30T01:36:13;63.45;;;31.25;;
43962;SDS011;29622;45.534;9.242;2022-11-30T01:41:23;66.63;;;30.75;;
43962;SDS011;29622;45.534;9.242;2022-11-30T01:58:04;61.47;;;28.90;;
43962;SDS011;29622;45.534;9.242;2022-11-30T02:03:33;58.78;;;28.33;;
43962;SDS011;29622;45.534;9.242;2022-11-30T02:08:40;63.78;;;30.25;;
43962;SDS011;29622;45.534;9.242;2022-11-30T02:13:45;58.20;;;30.23;;
43962;SDS011;29622;45.534;9.242;2022-11-30T02:30:14;57.13;;;27.90;;
43962;SDS011;29622;45.534;9.242;2022-11-30T02:35:33;54.42;;;26.20;;
43962;SDS011;29622;45.534;9.242;2022-11-30T02:40:49;55.55;;;26.52;;
43962;SDS011;29622;45.534;9.242;2022-11-30T02:46:27;58.55;;;26.60;;
43962;SDS011;29622;45.534;9.242;2022-11-30T02:51:39;58.67;;;26.83;;
43962;SDS011;29622;45.534;9.242;2022-11-30T02:57:07;50.78;;;25.63;;
43962;SDS011;29622;45.534;9.242;2022-11-30T03:02:22;53.07;;;26.27;;
43962;SDS011;29622;45.534;9.242;2022-11-30T03:07:44;51.13;;;23.75;;
43962;SDS011;29622;45.534;9.242;2022-11-30T03:13:39;63.53;;;26.50;;
43962;SDS011;29622;45.534;9.242;2022-11-30T03:31:59;44.05;;;23.33;;
43962;SDS011;29622;45.534;9.242;2022-11-30T03:37:41;52.05;;;23.85;;
43962;SDS011;29622;45.534;9.242;2022-11-30T03:43:27;49.55;;;24.15;;
43962;SDS011;29622;45.534;9.242;2022-11-30T03:49:36;55.60;;;23.75;;
43962;SDS011;29622;45.534;9.242;2022-11-30T04:07:31;45.60;;;22.85;;
43962;SDS011;29622;45.534;9.242;2022-11-30T04:13:18;44.65;;;24.42;;
43962;SDS011;29622;45.534;9.242;2022-11-30T04:25:17;48.42;;;22.65;;
43962;SDS011;29622;45.534;9.242;2022-11-30T04:31:41;50.83;;;25.17;;
43962;SDS011;29622;45.534;9.242;2022-11-30T04:49:59;61.20;;;27.50;;
43962;SDS011;29622;45.534;9.242;2022-11-30T04:55:59;51.88;;;25.20;;
43962;SDS011;29622;45.534;9.242;2022-11-30T05:02:08;56.72;;;27.40;;
43962;SDS011;29622;45.534;9.242;2022-11-30T05:08:25;60.47;;;28.08;;
43962;SDS011;29622;45.534;9.242;2022-11-30T05:14:45;48.55;;;25.08;;
43962;SDS011;29622;45.534;9.242;2022-11-30T05:21:13;59.22;;;28.90;;
43962;SDS011;29622;45.534;9.242;2022-11-30T05:27:11;54.00;;;27.73;;
43962;SDS011;29622;45.534;9.242;2022-11-30T05:33:02;57.75;;;27.30;;
43962;SDS011;29622;45.534;9.242;2022-11-30T05:39:08;60.08;;;28.25;;
43962;SDS011;29622;45.534;9.242;2022-11-30T05:45:08;55.33;;;27.30;;
43962;SDS011;29622;45.534;9.242;2022-11-30T05:51:35;56.38;;;27.98;;
43962;SDS011;29622;45.534;9.242;2022-11-30T05:57:19;55.20;;;26.40;;
43962;SDS011;29622;45.534;9.242;2022-11-30T06:02:20;53.65;;;26.23;;
43962;SDS011;29622;45.534;9.242;2022-11-30T06:07:27;56.42;;;27.90;;
43962;SDS011;29622;45.534;9.242;2022-11-30T06:25:08;52.03;;;26.35;;
43962;SDS011;29622;45.534;9.242;2022-11-30T06:30:56;49.50;;;26.63;;
43962;SDS011;29622;45.534;9.242;2022-11-30T06:43:26;59.58;;;28.40;;
43962;SDS011;29622;45.534;9.242;2022-11-30T06:48:36;67.28;;;31.00;;
43962;SDS011;29622;45.534;9.242;2022-11-30T06:53:40;53.10;;;26.45;;
43962;SDS011;29622;45.534;9.242;2022-11-30T06:58:51;63.13;;;29.35;;
43962;SDS011;29622;45.534;9.242;2022-11-30T07:03:59;60.08;;;27.58;;
43962;SDS011;29622;45.534;9.242;2022-11-30T07:09:29;55.65;;;27.05;;
43962;SDS011;29622;45.534;9.242;2022-11-30T07:14:47;61.80;;;28.73;;
43962;SDS011;29622;45.534;9.242;2022-11-30T07:20:23;54.75;;;28.65;;
43962;SDS011;29622;45.534;9.242;2022-11-30T07:32:03;60.45;;;28.05;;
43962;SDS011;29622;45.534;9.242;2022-11-30T07:37:30;62.25;;;27.73;;
43962;SDS011;29622;45.534;9.242;2022-11-30T07:43:17;62.28;;;29.05;;
43962;SDS011;29622;45.534;9.242;2022-11-30T07:48:51;50.38;;;25.70;;
43962;SDS011;29622;45.534;9.242;2022-11-30T07:53:53;50.75;;;24.67;;
43962;SDS011;29622;45.534;9.242;2022-11-30T08:05:44;44.95;;;22.67;;
43962;SDS011;29622;45.534;9.242;2022-11-30T08:10:53;42.50;;;22.25;;
43962;SDS011;29622;45.534;9.242;2022-11-30T08:16:56;46.10;;;24.00;;
43962;SDS011;29622;45.534;9.242;2022-11-30T08:22:52;43.78;;;21.88;;
43962;SDS011;29622;45.534;9.242;2022-11-30T08:27:56;58.63;;;25.88;;
43962;SDS011;29622;45.534;9.242;2022-11-30T08:32:57;45.17;;;21.88;;
43962;SDS011;29622;45.534;9.242;2022-11-30T08:57:39;51.33;;;24.45;;
43962;SDS011;29622;45.534;9.242;2022-11-30T09:10:20;57.45;;;24.30;;
43962;SDS011;29622;45.534;9.242;2022-11-30T09:16:28;54.85;;;25.48;;
43962;SDS011;29622;45.534;9.242;2022-11-30T09:22:24;60.72;;;25.85;;
43962;SDS011;29622;45.534;9.242;2022-11-30T09:34:42;51.05;;;24.35;;
43962;SDS011;29622;45.534;9.242;2022-11-30T09:39:59;52.33;;;24.88;;
43962;SDS011;29622;45.534;9.242;2022-11-30T09:46:19;54.95;;;26.83;;
43962;SDS011;29622;45.534;9.242;2022-11-30T09:51:45;57.83;;;25.52;;
43962;SDS011;29622;45.534;9.242;2022-11-30T10:03:17;52.97;;;24.13;;
43962;SDS011;29622;45.534;9.242;2022-11-30T10:09:11;30.08;;;14.43;;
43962;SDS011;29622;45.534;9.242;2022-11-30T10:14:25;38.88;;;18.50;;
43962;SDS011;29622;45.534;9.242;2022-11-30T10:25:23;39.78;;;19.80;;
43962;SDS011;29622;45.534;9.242;2022-11-30T10:30:32;37.72;;;20.42;;
43962;SDS011;29622;45.534;9.242;2022-11-30T10:35:55;36.10;;;18.98;;
43962;SDS011;29622;45.534;9.242;2022-11-30T10:46:35;44.60;;;22.00;;
43962;SDS011;29622;45.534;9.242;2022-11-30T10:51:42;30.80;;;15.50;;
43962;SDS011;29622;45.534;9.242;2022-11-30T10:56:52;44.42;;;22.80;;
43962;SDS011;29622;45.534;9.242;2022-11-30T11:01:53;42.83;;;24.38;;
43962;SDS011;29622;45.534;9.242;2022-11-30T11:06:56;46.40;;;21.92;;
43962;SDS011;29622;45.534;9.242;2022-11-30T11:31:14;37.95;;;21.33;;
43962;SDS011;29622;45.534;9.242;2022-11-30T11:42:58;53.25;;;23.88;;
43962;SDS011;29622;45.534;9.242;2022-11-30T12:00:00;41.72;;;22.08;;
43962;SDS011;29622;45.534;9.242;2022-11-30T12:11:17;44.72;;;21.45;;
43962;SDS011;29622;45.534;9.242;2022-11-30T12:16:30;43.03;;;20.92;;
43962;SDS011;29622;45.534;9.242;2022-11-30T12:32:36;49.75;;;23.70;;
43962;SDS011;29622;45.534;9.242;2022-11-30T12:38:25;38.90;;;21.63;;
43962;SDS011;29622;45.534;9.242;2022-11-30T12:43:51;42.83;;;21.15;;
43962;SDS011;29622;45.534;9.242;2022-11-30T13:04:57;47.63;;;23.15;;
43962;SDS011;29622;45.534;9.242;2022-11-30T13:10:26;47.83;;;22.63;;
43962;SDS011;29622;45.534;9.242;2022-11-30T14:01:44;45.55;;;22.92;;
43962;SDS011;29622;45.534;9.242;2022-11-30T14:20:43;48.13;;;24.20;;
43962;SDS011;29622;45.534;9.242;2022-11-30T14:26:58;56.58;;;23.63;;
43962;SDS011;29622;45.534;9.242;2022-11-30T14:46:50;49.33;;;21.15;;
43962;SDS011;29622;45.534;9.242;2022-11-30T15:12:22;40.15;;;20.02;;
43962;SDS011;29622;45.534;9.242;2022-11-30T17:00:53;42.17;;;19.00;;
43962;SDS011;29622;45.534;9.242;2022-11-30T17:06:19;43.53;;;19.48;;
43962;SDS011;29622;45.534;9.242;2022-11-30T17:12:31;48.90;;;20.88;;
43962;SDS011;29622;45.534;9.242;2022-11-30T17:18:18;50.20;;;22.92;;
43962;SDS011;29622;45.534;9.242;2022-11-30T17:29:49;43.20;;;20.20;;
43962;SDS011;29622;45.534;9.242;2022-11-30T17:36:00;43.47;;;19.80;;
43962;SDS011;29622;45.534;9.242;2022-11-30T17:41:04;54.70;;;23.88;;
43962;SDS011;29622;45.534;9.242;2022-11-30T18:05:50;52.35;;;20.50;;
43962;SDS011;29622;45.534;9.242;2022-11-30T18:12:04;34.28;;;11.93;;
43962;SDS011;29622;45.534;9.242;2022-11-30T18:18:03;50.15;;;20.95;;
43962;SDS011;29622;45.534;9.242;2022-11-30T18:35:06;46.30;;;20.60;;
43962;SDS011;29622;45.534;9.242;2022-11-30T18:40:34;52.85;;;22.42;;
43962;SDS011;29622;45.534;9.242;2022-11-30T18:46:17;54.55;;;24.75;;
43962;SDS011;29622;45.534;9.242;2022-11-30T18:51:48;37.72;;;14.93;;
43962;SDS011;29622;45.534;9.242;2022-11-30T18:57:08;46.35;;;22.75;;
43962;SDS011;29622;45.534;9.242;2022-11-30T19:02:48;35.33;;;14.98;;
43962;SDS011;29622;45.534;9.242;2022-11-30T19:08:13;51.55;;;21.60;;
43962;SDS011;29622;45.534;9.242;2022-11-30T19:13:36;47.17;;;22.05;;
43962;SDS011;29622;45.534;9.242;2022-11-30T19:19:02;47.15;;;20.70;;
43962;SDS011;29622;45.534;9.242;2022-11-30T19:31:09;46.55;;;20.83;;
43962;SDS011;29622;45.534;9.242;2022-11-30T19:36:51;45.70;;;21.70;;
43962;SDS011;29622;45.534;9.242;2022-11-30T19:50:06;46.72;;;19.85;;
43962;SDS011;29622;45.534;9.242;2022-11-30T20:07:49;45.55;;;20.85;;
43962;SDS011;29622;45.534;9.242;2022-11-30T20:20:48;42.58;;;19.77;;
43962;SDS011;29622;45.534;9.242;2022-11-30T20:58:57;45.47;;;21.10;;
43962;SDS011;29622;45.534;9.242;2022-11-30T21:18:19;41.33;;;20.70;;
43962;SDS011;29622;45.534;9.242;2022-11-30T21:23:23;39.75;;;19.75;;
43962;SDS011;29622;45.534;9.242;2022-11-30T21:34:35;51.10;;;21.88;;
43962;SDS011;29622;45.534;9.242;2022-11-30T21:40:35;56.95;;;22.33;;
43962;SDS011;29622;45.534;9.242;2022-11-30T21:52:32;52.00;;;22.30;;
43962;SDS011;29622;45.534;9.242;2022-11-30T22:11:14;53.95;;;22.15;;
43962;SDS011;29622;45.534;9.242;2022-11-30T22:41:29;50.92;;;21.65;;
43962;SDS011;29622;45.534;9.242;2022-11-30T22:54:26;48.70;;;22.75;;
43962;SDS011;29622;45.534;9.242;2022-11-30T23:25:22;52.20;;;21.88;;
43962;SDS011;29622;45.534;9.242;2022-11-30T23:31:21;45.83;;;20.67;;
43962;SDS011;29622;45.534;9.242;2022-11-30T23:37:53;45.13;;;21.60;;
43962;SDS011;29622;45.534;9.242;2022-11-30T23:43:54;50.42;;;22.20;;
43962;SDS011;29622;45.534;9.242;2022-11-30T23:49:49;46.63;;;21.88;;
